< < Back
Terminal Aerodrome Forecast


Current Version              Previous Versions:   1  2  3  4  5  6  7  8  9  

Terminal Aerodrome Forecast

198
FTUS44 KOHX 011100
TAFCSV
TAF
KCSV 011127Z 0112/0212 00000KT P6SM SCT040 OVC100
     FM011600 22010KT P6SM SCT040
     FM020100 19004KT P6SM SKC=



Latest METAR

233
SAUS70 KWBC 020800
MTRCSV
METAR KCSV 020753Z AUTO 22003KT 10SM CLR 22/19 A3013 RMK AO2 SLP179
T02170194


USA.gov is the U.S. government's official web portal to all federal, state and local government web resources and services.